Terminal Aerodrome Forecast
Issued by NWS

Home | Current Version | Previous Version | Text Only | Print | Product List | Glossary On
Versions: 1 2 3 4 5 6 7 8 9 10 11 12 13 14 15 16 17 18 19 20 21 22 23 24
011
FTUS46 KSGX 240520
TAFSAN
TAF
KSAN 240520Z 2406/2512 VRB03KT P6SM SKC
     FM242100 30008KT P6SM FEW250
     FM250100 VRB03KT P6SM FEW250
     FM250500 VRB03KT P6SM SCT015
     FM251000 VRB03KT P6SM BKN015=

USA.gov is the U.S. government's official web portal to all federal, state and local government web resources and services.